Detall de PIREP

Printer-friendly versionPDF version

[2015/12/20 11:05:00]
Flight IATA:CT1004
Pilot Number:016
Company ICAO:CAT
Aircraft Type:B738/F
PAX:139
Departing Airport: LEBL
Destination Airport: LEMD
Alternate Airport:LEMG
Online: VATSIM
Route:SENIA NEXAS UN975 ADUXO
Flight Level:F290
No Slew and time accel
No pause
Crash detect
Detect pilot in Cockpit between each 30 and 45 minutes
11:05 Zero fuel Weight: 116608 Lbs, Fuel Weight: 12508 Lbs
11:05 VATSIM:LEBL 201730Z 33005KT 290V350 7000 BKN034 13/09 Q1026 NOSIG
11:05 VATSIM:LEMD 201730Z 14005KT 120V180 9999 SCT070 12/04 Q1025 NOSIG
11:05 Parking Brakes off
11:14 Take-off
11:14 Take off Weight: 128264 Lbs
11:14 Wind: 333º @ 005 Knots Heading: 247º
11:14 POS N41º 17´ 13´´ E002º 05´ 18´´
11:14 Gear Up: 157 Knots
11:14 Flaps:3 at 157 Knots
11:15 Flaps:2 at 208 Knots
11:15 Flaps:1 at 234 Knots
11:15 Flaps:0 at 238 Knots
11:24 TOC
11:24 Fuel Weight: 9111 Lb
11:29 Wind:252º@002 Knots Heading: 270º Ground Speed: 431 Knots Altitude 29366 ft
11:39 TOD
11:39 Fuel Weight: 7581 Lb
11:44 Wind:207º@003 Knots Heading: 251º Ground Speed: 341 Knots Altitude 21437 ft
11:53 Flaps:1 at 246 Knots
11:55 Flaps:2 at 231 Knots
11:55 Flaps:3 at 206 Knots
11:55 Flaps:4 at 203 Knots
11:56 Gear Down: 180 Knots
11:58 Flaps:5 at 144 Knots
11:58 Flaps:6 at 144 Knots
11:58 Flaps:7 at 143 Knots
11:58 Flaps:8 at 132 Knots
11:59 Wind:169º@002 Knots Heading: 322º Ground Speed: 140 Knots Altitude 2601 ft
12:00 TouchDown:Rate -121 ft/min Speed: 119 Knots
12:00 VATSIM:LEMD 201830Z 18004KT 130V240 9999 FEW070 12/04 Q1026 NOSIG
12:00 Land
12:00 Wind:157º@002 Knots
12:00 Heading: 322º
12:00 Flight Duration: 00:46
12:00 Landing Weight: 123081 Lbs
12:00 POS N40º 28´ 10´´ W003º 33´ 38´´
12:04 Parking brakes on
12:04 Block to Block Duration: 00:59
12:04 Final Fuel: 6219 Lbls
12:04 Spent Fuel: 6289 Lbls
12:04 Flight Length: 265 NM
12:04 TOD Land Length: 100 NM

Exportar CSV

Powered by Drupal - Modified by Danger4k